Weather at University of Oklahoma Westheimer Airport

Public forecast

Using degrees Fahrenheit for public forecast. Weather courtesy of forecast.io.

Current aviation weather report (METAR) for University of Oklahoma Westheimer Airport

Retrieved 2021/09/21 16:45 UTC (49 minutes ago):

KOUN 211645Z 34018G23KT 10SM SCT120 23/08 A3027

Aviation forecast (TAF) for University of Oklahoma Westheimer Airport

Retrieved 2021/09/21 12:22 UTC (5 hours ago):

TAF KOUN 211120Z 2112/2212 01017G24KT P6SM SCT080 BKN150 FM220000 01008KT P6SM SKC